Time;durP1;ratioP1;P1;durP2;ratioP2;P2;SDS_P1;SDS_P2;PMS_P1;PMS_P2;Temp;Humidity;BMP_temperature;BMP_pressure;BME280_temperature;BME280_humidity;BME280_pressure;Samples;Min_cycle;Max_cycle;Signal;HPM_P1;HPM_P2
2022/10/19 00:02:05;;;;;;;14.47;7.10;;;;;;;;;;5063829;28;20204;-81
2022/10/19 00:05:09;;;;;;;11.47;7.10;;;;;;;;;;5053714;28;20555;-81
2022/10/19 00:08:14;;;;;;;7.07;6.33;;;;;;;;;;5064947;28;20172;-81
2022/10/19 00:11:18;;;;;;;7.63;6.63;;;;;;;;;;5053486;28;20184;-81
2022/10/19 00:14:23;;;;;;;10.50;6.70;;;;;;;;;;5053601;28;20224;-81
2022/10/19 00:17:27;;;;;;;10.43;7.20;;;;;;;;;;5053357;28;20180;-81
2022/10/19 00:20:32;;;;;;;9.87;8.20;;;;;;;;;;5064505;28;20195;-81
2022/10/19 00:23:36;;;;;;;10.87;6.80;;;;;;;;;;5063260;28;20224;-81
2022/10/19 00:26:41;;;;;;;9.13;6.30;;;;;;;;;;5064672;28;20192;-81
2022/10/19 00:29:46;;;;;;;10.53;6.80;;;;;;;;;;5052137;28;20220;-81
2022/10/19 00:32:49;;;;;;;9.20;6.57;;;;;;;;;;5064660;28;20195;-81
2022/10/19 00:35:54;;;;;;;9.60;6.40;;;;;;;;;;5063727;28;20200;-81
2022/10/19 00:38:59;;;;;;;10.27;6.70;;;;;;;;;;5063690;28;20192;-81
2022/10/19 00:42:03;;;;;;;13.50;6.90;;;;;;;;;;5053196;28;20532;-81
2022/10/19 00:45:13;;;;;;;10.57;7.70;;;;;;;;;;5064208;28;20674;-81
2022/10/19 00:48:25;;;;;;;10.57;7.30;;;;;;;;;;5063490;28;20180;-81
2022/10/19 00:51:31;;;;;;;9.67;7.70;;;;;;;;;;5064361;28;20513;-81
2022/10/19 00:54:37;;;;;;;9.17;6.80;;;;;;;;;;5064007;28;20698;-81
2022/10/19 00:57:42;;;;;;;10.07;7.63;;;;;;;;;;5064628;28;20180;-81
2022/10/19 01:00:46;;;;;;;9.40;6.60;;;;;;;;;;5064033;28;20199;-79
2022/10/19 01:03:51;;;;;;;10.37;7.17;;;;;;;;;;5063867;28;20211;-81
2022/10/19 01:06:56;;;;;;;11.77;6.90;;;;;;;;;;5063449;28;20654;-81
2022/10/19 01:10:01;;;;;;;9.70;6.80;;;;;;;;;;5063436;28;20208;-81
2022/10/19 01:13:23;;;;;;;19.20;7.60;;;;;;;;;;5062931;28;20204;-81
2022/10/19 01:16:40;;;;;;;8.97;6.90;;;;;;;;;;5073613;28;20204;-81
2022/10/19 01:20:12;;;;;;;9.23;6.90;;;;;;;;;;5052294;28;20180;-81
2022/10/19 01:24:01;;;;;;;7.37;6.63;;;;;;;;;;5063359;28;20176;-81
2022/10/19 01:27:36;;;;;;;10.40;7.27;;;;;;;;;;5044235;28;20177;-81
2022/10/19 01:30:51;;;;;;;10.57;7.30;;;;;;;;;;5062771;28;20679;-81
2022/10/19 01:34:05;;;;;;;12.03;7.40;;;;;;;;;;5074391;28;20211;-81
2022/10/19 01:37:20;;;;;;;10.57;7.60;;;;;;;;;;5051579;28;20191;-81
2022/10/19 01:40:33;;;;;;;10.93;7.40;;;;;;;;;;5051417;28;20524;-81
2022/10/19 01:43:49;;;;;;;10.07;7.47;;;;;;;;;;5040084;28;20212;-81
2022/10/19 01:47:02;;;;;;;7.97;7.07;;;;;;;;;;5062571;28;20177;-81
2022/10/19 01:50:16;;;;;;;13.50;7.20;;;;;;;;;;5062223;28;20212;-81
2022/10/19 01:53:22;;;;;;;7.60;6.77;;;;;;;;;;5052266;28;20216;-81
2022/10/19 01:56:29;;;;;;;8.07;7.20;;;;;;;;;;5063275;28;20610;-81
2022/10/19 01:59:35;;;;;;;12.10;7.70;;;;;;;;;;5051331;28;20176;-81
2022/10/19 02:02:45;;;;;;;10.33;7.17;;;;;;;;;;5039954;28;20180;-81
2022/10/19 02:05:51;;;;;;;8.93;6.73;;;;;;;;;;5040033;28;20631;-80
2022/10/19 02:08:55;;;;;;;17.37;7.07;;;;;;;;;;5062940;28;20172;-81
2022/10/19 02:12:04;;;;;;;16.43;7.83;;;;;;;;;;5074132;28;20532;-81
2022/10/19 02:15:13;;;;;;;11.87;7.73;;;;;;;;;;5063655;28;20686;-81
2022/10/19 02:18:22;;;;;;;10.33;8.27;;;;;;;;;;5063307;28;20647;-81
2022/10/19 02:21:27;;;;;;;10.20;8.17;;;;;;;;;;5051888;28;20172;-81
2022/10/19 02:24:32;;;;;;;10.83;8.80;;;;;;;;;;5039235;28;20219;-80
2022/10/19 02:27:38;;;;;;;10.17;8.77;;;;;;;;;;5050042;28;20176;-81
2022/10/19 02:30:42;;;;;;;10.37;8.37;;;;;;;;;;5062185;28;20204;-81
2022/10/19 02:33:47;;;;;;;9.13;7.40;;;;;;;;;;5061380;28;20611;-80
2022/10/19 02:36:51;;;;;;;13.57;8.00;;;;;;;;;;5062331;28;20175;-81
2022/10/19 02:39:55;;;;;;;9.83;7.13;;;;;;;;;;5061700;28;20176;-80
2022/10/19 02:43:04;;;;;;;8.47;7.53;;;;;;;;;;5050893;28;20185;-80
2022/10/19 02:46:24;;;;;;;16.60;8.00;;;;;;;;;;5062139;28;20180;-81
2022/10/19 02:49:31;;;;;;;11.37;7.77;;;;;;;;;;5062494;28;20208;-81
2022/10/19 02:52:37;;;;;;;9.37;8.47;;;;;;;;;;5062217;28;20177;-81
2022/10/19 02:55:42;;;;;;;10.97;8.17;;;;;;;;;;5061766;28;20196;-80
2022/10/19 02:58:46;;;;;;;11.30;7.80;;;;;;;;;;5049448;28;20195;-81
2022/10/19 03:01:51;;;;;;;11.07;7.97;;;;;;;;;;5041390;28;20203;-80
2022/10/19 03:04:55;;;;;;;9.47;7.30;;;;;;;;;;5065031;28;20219;-80
2022/10/19 03:07:59;;;;;;;12.43;8.27;;;;;;;;;;5065763;28;20176;-81
2022/10/19 03:11:04;;;;;;;9.43;8.43;;;;;;;;;;5065611;28;20212;-81
2022/10/19 03:14:08;;;;;;;12.27;7.87;;;;;;;;;;5066723;28;20208;-81
2022/10/19 03:17:12;;;;;;;9.30;8.40;;;;;;;;;;5066270;28;20176;-81
2022/10/19 03:20:16;;;;;;;8.63;7.53;;;;;;;;;;5066417;28;20168;-80
2022/10/19 03:23:20;;;;;;;12.67;8.50;;;;;;;;;;5077508;28;20211;-80
2022/10/19 03:26:25;;;;;;;12.40;8.70;;;;;;;;;;5065818;28;20639;-81
2022/10/19 03:29:29;;;;;;;14.53;8.67;;;;;;;;;;5054634;28;20172;-81
2022/10/19 03:32:34;;;;;;;12.50;7.77;;;;;;;;;;5064962;28;20180;-81
2022/10/19 03:35:38;;;;;;;13.30;8.83;;;;;;;;;;5042741;28;20176;-80
2022/10/19 03:38:42;;;;;;;13.60;9.17;;;;;;;;;;5042309;28;20177;-80
2022/10/19 03:41:47;;;;;;;13.57;9.43;;;;;;;;;;5053558;28;20172;-81
2022/10/19 03:44:51;;;;;;;11.57;8.37;;;;;;;;;;5064804;28;20208;-81
2022/10/19 03:47:55;;;;;;;10.00;8.53;;;;;;;;;;5065234;28;20643;-80
2022/10/19 03:51:09;;;;;;;10.80;8.77;;;;;;;;;;5064858;28;20208;-81
2022/10/19 03:54:15;;;;;;;11.30;8.47;;;;;;;;;;5076186;28;20219;-80
2022/10/19 03:57:19;;;;;;;11.43;8.67;;;;;;;;;;5065897;28;20176;-80
2022/10/19 04:00:23;;;;;;;13.17;9.43;;;;;;;;;;5083068;22;20212;-85
2022/10/19 04:03:27;;;;;;;9.70;8.67;;;;;;;;;;5062939;28;20190;-85
2022/10/19 04:06:37;;;;;;;11.93;10.20;;;;;;;;;;5073966;28;20179;-85
2022/10/19 04:09:41;;;;;;;21.90;16.83;;;;;;;;;;5072855;28;20198;-85
2022/10/19 04:12:45;;;;;;;21.83;14.47;;;;;;;;;;5051999;28;20187;-85
2022/10/19 04:15:49;;;;;;;20.17;14.03;;;;;;;;;;5053542;28;20194;-85
2022/10/19 04:18:54;;;;;;;19.70;14.17;;;;;;;;;;5053668;28;20258;-85
2022/10/19 04:21:58;;;;;;;20.53;14.87;;;;;;;;;;5064708;28;20222;-85
2022/10/19 04:25:02;;;;;;;18.00;12.57;;;;;;;;;;5052953;28;20185;-85
2022/10/19 04:28:06;;;;;;;16.13;11.03;;;;;;;;;;5064242;28;20676;-85
2022/10/19 04:31:11;;;;;;;15.93;12.33;;;;;;;;;;5048017;28;20238;-85
2022/10/19 04:34:16;;;;;;;23.53;16.73;;;;;;;;;;5033157;28;20187;-85
2022/10/19 04:37:20;;;;;;;22.77;15.20;;;;;;;;;;5033246;28;20195;-85
2022/10/19 04:40:24;;;;;;;22.93;15.60;;;;;;;;;;5032683;28;20218;-84
2022/10/19 04:43:29;;;;;;;26.43;18.90;;;;;;;;;;5033286;28;20203;-85
2022/10/19 04:46:33;;;;;;;25.67;16.90;;;;;;;;;;5044326;28;20187;-85
2022/10/19 04:49:37;;;;;;;33.47;17.93;;;;;;;;;;5021144;28;20192;-85
2022/10/19 04:52:43;;;;;;;29.20;19.73;;;;;;;;;;5032324;28;20183;-85
2022/10/19 04:55:47;;;;;;;28.73;18.67;;;;;;;;;;5032441;28;20195;-85
2022/10/19 04:58:55;;;;;;;27.37;17.70;;;;;;;;;;5032092;28;20183;-85
2022/10/19 05:01:59;;;;;;;24.23;17.63;;;;;;;;;;5031779;28;20246;-85
2022/10/19 05:05:04;;;;;;;31.10;18.43;;;;;;;;;;5032120;28;20195;-85
2022/10/19 05:08:09;;;;;;;38.37;20.00;;;;;;;;;;5070405;28;20214;-85
2022/10/19 05:11:14;;;;;;;28.57;19.53;;;;;;;;;;5051308;28;20222;-85
2022/10/19 05:14:18;;;;;;;28.50;19.00;;;;;;;;;;5054785;28;20187;-85
2022/10/19 05:17:22;;;;;;;27.83;18.63;;;;;;;;;;5066268;28;20195;-86
2022/10/19 05:20:27;;;;;;;34.80;18.47;;;;;;;;;;5046328;28;20582;-87
2022/10/19 05:23:32;;;;;;;28.20;17.87;;;;;;;;;;5032613;28;20547;-85
2022/10/19 05:26:36;;;;;;;66.53;17.87;;;;;;;;;;5032398;28;20191;-85
2022/10/19 05:29:40;;;;;;;29.90;16.43;;;;;;;;;;5044144;28;20187;-85
2022/10/19 05:32:44;;;;;;;36.23;16.43;;;;;;;;;;5021228;28;20179;-85
2022/10/19 05:35:48;;;;;;;32.73;18.17;;;;;;;;;;5021372;28;20195;-85
2022/10/19 05:38:55;;;;;;;32.53;17.13;;;;;;;;;;5031758;28;20188;-85
2022/10/19 05:41:59;;;;;;;33.03;16.37;;;;;;;;;;5043247;28;20223;-85
2022/10/19 05:45:03;;;;;;;34.57;15.73;;;;;;;;;;5043303;28;20183;-86
2022/10/19 05:48:08;;;;;;;29.27;15.50;;;;;;;;;;5021096;28;20179;-86
2022/10/19 05:51:15;;;;;;;41.43;15.63;;;;;;;;;;5043145;28;20223;-85
2022/10/19 05:54:19;;;;;;;19.27;13.93;;;;;;;;;;5042957;28;20183;-85
2022/10/19 05:57:24;;;;;;;16.90;11.93;;;;;;;;;;5043229;28;20183;-84
2022/10/19 06:00:29;;;;;;;18.53;11.60;;;;;;;;;;5031613;28;20219;-86
2022/10/19 06:03:33;;;;;;;17.13;11.97;;;;;;;;;;5020719;28;20548;-85
2022/10/19 06:06:37;;;;;;;22.97;12.33;;;;;;;;;;5020175;28;20191;-85
2022/10/19 06:09:41;;;;;;;15.57;11.37;;;;;;;;;;5043110;28;20530;-85
2022/10/19 06:12:45;;;;;;;40.07;12.90;;;;;;;;;;5020228;28;20179;-85
2022/10/19 06:15:50;;;;;;;91.50;18.63;;;;;;;;;;5043102;28;20191;-85
2022/10/19 06:18:55;;;;;;;28.70;14.37;;;;;;;;;;5031738;28;20191;-85
2022/10/19 06:21:59;;;;;;;72.27;14.53;;;;;;;;;;5042515;28;20227;-84
2022/10/19 06:25:03;;;;;;;99.70;12.10;;;;;;;;;;5031105;28;20183;-84
2022/10/19 06:28:08;;;;;;;17.60;12.13;;;;;;;;;;5031195;28;20213;-85
2022/10/19 06:31:13;;;;;;;27.47;12.37;;;;;;;;;;5019937;28;20582;-85
2022/10/19 06:34:17;;;;;;;17.67;14.23;;;;;;;;;;5042384;28;20207;-85
2022/10/19 06:37:21;;;;;;;17.40;12.73;;;;;;;;;;5023521;28;20218;-85
2022/10/19 06:40:25;;;;;;;162.30;12.13;;;;;;;;;;5023118;28;20238;-85
2022/10/19 06:43:30;;;;;;;69.40;11.47;;;;;;;;;;5023660;28;20535;-85
2022/10/19 06:46:34;;;;;;;14.93;12.40;;;;;;;;;;5046293;28;20183;-85
2022/10/19 06:49:38;;;;;;;15.87;12.37;;;;;;;;;;5023294;28;20539;-85
2022/10/19 06:52:42;;;;;;;97.07;13.93;;;;;;;;;;5045721;28;20183;-85
2022/10/19 06:55:46;;;;;;;65.80;13.60;;;;;;;;;;5022725;28;20192;-85
2022/10/19 06:58:51;;;;;;;18.83;12.97;;;;;;;;;;5034206;28;20179;-85
2022/10/19 07:01:54;;;;;;;33.83;13.70;;;;;;;;;;5033639;28;20705;-85
2022/10/19 07:04:58;;;;;;;41.57;13.47;;;;;;;;;;5033783;28;20191;-85
2022/10/19 07:08:03;;;;;;;26.13;13.77;;;;;;;;;;5022570;28;20188;-85
2022/10/19 07:11:11;;;;;;;17.50;12.77;;;;;;;;;;5033406;28;20713;-85
2022/10/19 07:14:15;;;;;;;38.73;14.03;;;;;;;;;;5044937;28;20566;-85
2022/10/19 07:17:19;;;;;;;24.23;14.93;;;;;;;;;;5022216;28;20187;-85
2022/10/19 07:20:23;;;;;;;18.57;14.70;;;;;;;;;;5034058;28;20234;-85
2022/10/19 07:23:29;;;;;;;15.63;12.10;;;;;;;;;;5044976;28;20199;-85
2022/10/19 07:26:33;;;;;;;23.77;13.50;;;;;;;;;;5044933;28;20187;-85
2022/10/19 07:29:37;;;;;;;48.83;13.53;;;;;;;;;;5045014;28;20184;-85
2022/10/19 07:32:41;;;;;;;21.33;14.60;;;;;;;;;;5044557;28;20226;-85
2022/10/19 07:35:46;;;;;;;20.73;14.07;;;;;;;;;;5022001;28;20211;-85
2022/10/19 07:38:50;;;;;;;19.53;15.57;;;;;;;;;;5044559;28;20194;-85
2022/10/19 07:41:54;;;;;;;17.57;14.13;;;;;;;;;;5032721;28;20701;-85
2022/10/19 07:44:59;;;;;;;25.53;14.43;;;;;;;;;;5021615;28;20681;-85
2022/10/19 07:48:03;;;;;;;16.80;12.70;;;;;;;;;;5020758;28;20188;-84
2022/10/19 07:51:09;;;;;;;23.40;13.43;;;;;;;;;;5021679;28;20712;-85
2022/10/19 07:54:14;;;;;;;46.40;14.10;;;;;;;;;;5044622;28;20187;-85
2022/10/19 07:57:18;;;;;;;44.13;13.87;;;;;;;;;;5021803;28;20539;-85
2022/10/19 08:00:22;;;;;;;34.27;12.37;;;;;;;;;;5044426;28;20709;-85
2022/10/19 08:03:26;;;;;;;52.90;12.97;;;;;;;;;;5044087;28;20184;-85
2022/10/19 08:06:31;;;;;;;18.67;13.77;;;;;;;;;;5033112;28;20563;-85
2022/10/19 08:09:35;;;;;;;16.20;11.23;;;;;;;;;;5044643;28;20641;-85
2022/10/19 08:12:39;;;;;;;18.00;11.90;;;;;;;;;;5032587;28;20215;-85
2022/10/19 08:15:43;;;;;;;20.90;10.93;;;;;;;;;;5032385;28;20234;-85
2022/10/19 08:18:48;;;;;;;28.33;10.80;;;;;;;;;;5032735;28;20543;-85
2022/10/19 08:21:52;;;;;;;14.70;9.30;;;;;;;;;;5032224;28;20222;-85
2022/10/19 08:24:57;;;;;;;20.27;10.23;;;;;;;;;;5047953;28;20195;-85
2022/10/19 08:28:01;;;;;;;14.50;9.30;;;;;;;;;;5035723;28;20179;-85
2022/10/19 08:31:18;;;;;;;14.33;8.97;;;;;;;;;;5046123;28;20207;-86
2022/10/19 08:34:22;;;;;;;13.70;9.13;;;;;;;;;;5034041;28;20200;-86
2022/10/19 08:37:26;;;;;;;10.93;8.80;;;;;;;;;;5033666;28;20172;-85
2022/10/19 08:40:31;;;;;;;12.93;8.50;;;;;;;;;;5032711;28;20215;-85
2022/10/19 08:43:39;;;;;;;12.00;9.47;;;;;;;;;;5056227;28;20180;-85
2022/10/19 08:47:16;;;;;;;11.90;9.50;;;;;;;;;;5043865;28;20631;-85
2022/10/19 08:50:33;;;;;;;12.17;9.03;;;;;;;;;;5020941;28;20220;-85
2022/10/19 08:53:59;;;;;;;10.63;8.13;;;;;;;;;;5032762;28;20631;-85
2022/10/19 08:57:19;;;;;;;12.67;8.90;;;;;;;;;;5032347;28;20181;-85
2022/10/19 09:00:53;;;;;;;10.87;8.87;;;;;;;;;;5031862;28;20580;-85
2022/10/19 09:04:11;;;;;;;8.53;7.43;;;;;;;;;;5031204;28;20199;-85
2022/10/19 09:07:29;;;;;;;12.60;10.07;;;;;;;;;;5026052;28;20196;-85
2022/10/19 09:10:46;;;;;;;9.27;8.20;;;;;;;;;;5054975;28;20295;-85
2022/10/19 09:13:59;;;;;;;9.47;8.13;;;;;;;;;;5031362;28;20172;-85
2022/10/19 09:17:12;;;;;;;9.20;7.97;;;;;;;;;;5020194;28;20188;-85
2022/10/19 09:20:24;;;;;;;12.60;8.17;;;;;;;;;;5031192;28;20624;-85
2022/10/19 09:23:35;;;;;;;9.23;8.07;;;;;;;;;;5020209;28;20219;-85
2022/10/19 09:26:52;;;;;;;9.07;7.97;;;;;;;;;;5020080;28;20184;-85
2022/10/19 09:30:02;;;;;;;12.33;8.63;;;;;;;;;;5031910;28;20181;-85
2022/10/19 09:33:13;;;;;;;12.50;8.03;;;;;;;;;;5031175;28;20204;-86
2022/10/19 09:36:17;;;;;;;12.47;8.63;;;;;;;;;;5031192;28;20623;-85
2022/10/19 09:39:26;;;;;;;8.57;7.67;;;;;;;;;;5020615;28;20630;-84
2022/10/19 09:42:32;;;;;;;9.67;8.40;;;;;;;;;;5043064;28;20619;-85
2022/10/19 09:45:54;;;;;;;9.40;8.00;;;;;;;;;;5042876;28;20204;-85
2022/10/19 09:49:00;;;;;;;9.80;8.00;;;;;;;;;;5032098;28;20180;-85
2022/10/19 09:52:04;;;;;;;7.57;6.77;;;;;;;;;;5020981;28;20220;-85
2022/10/19 09:55:27;;;;;;;9.77;8.77;;;;;;;;;;5055339;28;20184;-85
2022/10/19 09:58:33;;;;;;;9.20;8.27;;;;;;;;;;5042854;28;20536;-85
2022/10/19 10:01:39;;;;;;;8.87;7.50;;;;;;;;;;5060052;22;20230;-87
2022/10/19 10:05:12;;;;;;;8.10;7.17;;;;;;;;;;5058753;28;20170;-85
2022/10/19 10:08:20;;;;;;;9.53;7.97;;;;;;;;;;5056946;28;20183;-87
2022/10/19 10:11:28;;;;;;;7.93;7.00;;;;;;;;;;5068755;28;20550;-86
2022/10/19 10:14:34;;;;;;;9.87;7.23;;;;;;;;;;5058901;28;20530;-87
2022/10/19 10:17:38;;;;;;;7.73;7.03;;;;;;;;;;5070006;28;20621;-86
2022/10/19 10:20:55;;;;;;;18.37;7.80;;;;;;;;;;5058556;28;20202;-87
2022/10/19 10:24:15;;;;;;;13.93;5.10;;;;;;;;;;5064949;28;20194;-86
2022/10/19 10:27:34;;;;;;;5.50;3.47;;;;;;;;;;5081456;28;20186;-86
2022/10/19 10:30:39;;;;;;;13.10;4.33;;;;;;;;;;5081483;28;20183;-87
2022/10/19 10:33:52;;;;;;;5.40;4.90;;;;;;;;;;5061222;28;20207;-87
2022/10/19 10:36:57;;;;;;;4.87;4.00;;;;;;;;;;5049805;28;20172;-86
2022/10/19 10:40:03;;;;;;;8.07;4.13;;;;;;;;;;5049605;28;20632;-86
2022/10/19 10:43:14;;;;;;;4.17;3.60;;;;;;;;;;5049388;28;20177;-86
2022/10/19 10:46:23;;;;;;;3.37;3.07;;;;;;;;;;5037851;28;20192;-86
2022/10/19 10:49:28;;;;;;;3.33;3.03;;;;;;;;;;5050015;28;20176;-86
2022/10/19 10:52:33;;;;;;;2.90;2.60;;;;;;;;;;5049071;28;20227;-86
2022/10/19 10:55:37;;;;;;;5.37;2.47;;;;;;;;;;5038343;28;20634;-86
2022/10/19 10:58:50;;;;;;;3.07;2.70;;;;;;;;;;5049437;28;20175;-86
2022/10/19 11:02:12;;;;;;;4.97;2.50;;;;;;;;;;5037644;28;20559;-86
2022/10/19 11:05:54;;;;;;;2.87;2.53;;;;;;;;;;5049265;28;20179;-86
2022/10/19 11:09:10;;;;;;;4.07;2.50;;;;;;;;;;5003962;28;20197;-86
2022/10/19 11:12:18;;;;;;;2.57;2.37;;;;;;;;;;5037788;28;20686;-86
2022/10/19 11:16:05;;;;;;;5.93;2.43;;;;;;;;;;5060896;28;20176;-86
2022/10/19 11:19:28;;;;;;;3.50;2.50;;;;;;;;;;5049543;28;20180;-86
2022/10/19 11:22:59;;;;;;;2.10;1.80;;;;;;;;;;5056837;28;20223;-86
2022/10/19 11:26:32;;;;;;;1.80;1.70;;;;;;;;;;5041556;28;20514;-86
2022/10/19 11:30:09;;;;;;;2.43;2.00;;;;;;;;;;5064476;28;20176;-85
2022/10/19 11:33:31;;;;;;;3.43;2.10;;;;;;;;;;5041110;28;20215;-86
2022/10/19 11:37:17;;;;;;;2.93;1.97;;;;;;;;;;5041578;28;20180;-86
2022/10/19 11:40:33;;;;;;;10.33;3.00;;;;;;;;;;4972876;28;20182;-86
2022/10/19 11:44:03;;;;;;;2.40;2.20;;;;;;;;;;4988132;28;20681;-86
2022/10/19 11:47:22;;;;;;;3.83;2.70;;;;;;;;;;5064010;28;20187;-86
2022/10/19 11:50:48;;;;;;;2.87;2.67;;;;;;;;;;5052669;28;20183;-86
2022/10/19 11:54:14;;;;;;;7.17;3.10;;;;;;;;;;5041098;28;20681;-86
2022/10/19 11:57:41;;;;;;;4.27;3.50;;;;;;;;;;5040786;28;20191;-86
2022/10/19 12:01:12;;;;;;;4.70;2.93;;;;;;;;;;5051931;28;20180;-86
2022/10/19 12:04:28;;;;;;;8.37;3.00;;;;;;;;;;5047302;28;20507;-86
2022/10/19 12:07:54;;;;;;;3.63;2.70;;;;;;;;;;5052055;28;20626;-86
2022/10/19 12:11:32;;;;;;;5.57;2.60;;;;;;;;;;5040791;28;20211;-86
2022/10/19 12:14:40;;;;;;;3.80;2.27;;;;;;;;;;5040684;28;20172;-86
2022/10/19 12:17:48;;;;;;;5.67;2.70;;;;;;;;;;5052130;28;20180;-86
2022/10/19 12:20:57;;;;;;;6.17;3.13;;;;;;;;;;5040034;28;20515;-86
2022/10/19 12:24:05;;;;;;;3.13;2.87;;;;;;;;;;5052010;28;20171;-86
2022/10/19 12:27:13;;;;;;;3.73;2.90;;;;;;;;;;5075966;28;20176;-86
2022/10/19 12:30:21;;;;;;;5.17;2.63;;;;;;;;;;5040217;28;20183;-86
2022/10/19 12:33:46;;;;;;;2.83;2.33;;;;;;;;;;5039768;28;20219;-86
2022/10/19 12:37:08;;;;;;;2.50;2.30;;;;;;;;;;5039980;28;20180;-86
2022/10/19 12:40:21;;;;;;;6.30;2.30;;;;;;;;;;5039819;28;20515;-86
2022/10/19 12:43:44;;;;;;;3.20;2.03;;;;;;;;;;5039960;28;20175;-86
2022/10/19 12:47:18;;;;;;;3.83;2.30;;;;;;;;;;5039924;28;20524;-86
2022/10/19 12:50:47;;;;;;;4.33;2.37;;;;;;;;;;5051119;28;20182;-86
2022/10/19 12:54:07;;;;;;;2.53;2.20;;;;;;;;;;5051220;28;20208;-87
2022/10/19 12:57:24;;;;;;;3.20;2.40;;;;;;;;;;5040034;28;20177;-86
2022/10/19 13:00:35;;;;;;;5.40;2.30;;;;;;;;;;5051042;28;20200;-87
2022/10/19 13:03:43;;;;;;;3.53;2.00;;;;;;;;;;5039632;28;20169;-87
2022/10/19 13:06:48;;;;;;;2.07;1.70;;;;;;;;;;5039839;28;20636;-86
2022/10/19 13:10:01;;;;;;;2.30;2.10;;;;;;;;;;5050919;28;20628;-86
2022/10/19 13:13:43;;;;;;;1.30;1.20;;;;;;;;;;5050703;28;20213;-86
2022/10/19 13:17:01;;;;;;;2.87;1.70;;;;;;;;;;5039346;28;20178;-86
2022/10/19 13:20:14;;;;;;;2.47;2.20;;;;;;;;;;5038796;28;20195;-86
2022/10/19 13:23:25;;;;;;;3.07;2.53;;;;;;;;;;5050614;28;20185;-86
2022/10/19 13:26:33;;;;;;;2.13;1.93;;;;;;;;;;5039324;28;20181;-86
2022/10/19 13:29:37;;;;;;;2.63;2.43;;;;;;;;;;5050487;28;20198;-86
2022/10/19 13:32:43;;;;;;;31.70;4.47;;;;;;;;;;5061318;28;20224;-86
2022/10/19 13:35:47;;;;;;;99.77;7.07;;;;;;;;;;5039091;28;20177;-86
2022/10/19 13:38:58;;;;;;;4.73;2.30;;;;;;;;;;5038868;28;20192;-86
2022/10/19 13:42:02;;;;;;;3.03;2.03;;;;;;;;;;5038852;28;20678;-86
2022/10/19 13:45:20;;;;;;;4.10;2.47;;;;;;;;;;5038086;28;20176;-86
2022/10/19 13:48:51;;;;;;;2.83;1.97;;;;;;;;;;5049882;28;20199;-86
2022/10/19 13:52:23;;;;;;;4.37;2.17;;;;;;;;;;5024637;28;20558;-86
2022/10/19 13:55:52;;;;;;;3.87;2.10;;;;;;;;;;5038989;28;20520;-86
2022/10/19 13:59:19;;;;;;;2.43;2.10;;;;;;;;;;5038716;28;20495;-86
2022/10/19 14:02:53;;;;;;;2.50;2.17;;;;;;;;;;5043223;28;20574;-86
2022/10/19 14:06:12;;;;;;;2.40;2.20;;;;;;;;;;5038630;28;20176;-86
2022/10/19 14:09:47;;;;;;;3.67;2.20;;;;;;;;;;5038827;28;20184;-86
2022/10/19 14:12:51;;;;;;;2.40;2.20;;;;;;;;;;5061082;28;20689;-86
2022/10/19 14:16:00;;;;;;;3.23;2.43;;;;;;;;;;5038741;28;20179;-86
2022/10/19 14:19:12;;;;;;;5.07;2.50;;;;;;;;;;5038384;28;20175;-86
2022/10/19 14:22:23;;;;;;;3.23;2.70;;;;;;;;;;5038573;28;20223;-86
2022/10/19 14:25:28;;;;;;;3.47;2.47;;;;;;;;;;5038477;28;20180;-86
2022/10/19 14:28:33;;;;;;;2.60;2.30;;;;;;;;;;5061129;28;20180;-86
2022/10/19 14:31:37;;;;;;;3.87;2.20;;;;;;;;;;5049666;28;20223;-86
2022/10/19 14:34:43;;;;;;;4.70;2.97;;;;;;;;;;5038275;28;20207;-86
2022/10/19 14:37:47;;;;;;;7.20;3.27;;;;;;;;;;5049475;28;20176;-86
2022/10/19 14:40:51;;;;;;;3.33;3.03;;;;;;;;;;5049463;28;20180;-86
2022/10/19 14:43:57;;;;;;;4.30;3.30;;;;;;;;;;5049764;28;20626;-86
2022/10/19 14:47:01;;;;;;;3.60;3.30;;;;;;;;;;5038165;28;20179;-86
2022/10/19 14:50:09;;;;;;;5.70;3.90;;;;;;;;;;5038767;28;20184;-86
2022/10/19 14:53:23;;;;;;;5.70;3.37;;;;;;;;;;5049762;28;20223;-86
2022/10/19 14:56:53;;;;;;;4.33;3.23;;;;;;;;;;5039325;28;20191;-86
2022/10/19 15:00:01;;;;;;;3.40;3.10;;;;;;;;;;5042012;28;20179;-86
2022/10/19 15:03:08;;;;;;;4.90;3.40;;;;;;;;;;5055779;28;20195;-86
2022/10/19 15:06:20;;;;;;;6.50;3.47;;;;;;;;;;5053979;28;20659;-86
2022/10/19 15:09:27;;;;;;;7.03;3.70;;;;;;;;;;5041557;28;20184;-86
2022/10/19 15:12:39;;;;;;;5.97;3.87;;;;;;;;;;5041443;28;20215;-86
2022/10/19 15:15:43;;;;;;;7.97;4.13;;;;;;;;;;5041649;28;20172;-86
2022/10/19 15:18:47;;;;;;;22.63;4.60;;;;;;;;;;5053354;28;20515;-86
2022/10/19 15:22:13;;;;;;;11.13;4.37;;;;;;;;;;5054048;28;20559;-86
2022/10/19 15:25:35;;;;;;;5.83;4.40;;;;;;;;;;5052886;28;20180;-86
2022/10/19 15:28:39;;;;;;;14.40;5.60;;;;;;;;;;5041624;28;20187;-86
2022/10/19 15:31:43;;;;;;;12.33;4.57;;;;;;;;;;5041077;28;20219;-86
2022/10/19 15:34:47;;;;;;;6.53;4.50;;;;;;;;;;5041039;28;20583;-86
2022/10/19 15:38:03;;;;;;;7.70;4.40;;;;;;;;;;5041325;28;20199;-86
2022/10/19 15:41:17;;;;;;;14.33;5.20;;;;;;;;;;5052554;28;20559;-86
2022/10/19 15:44:31;;;;;;;9.07;4.43;;;;;;;;;;5041634;28;20180;-87
2022/10/19 15:47:35;;;;;;;6.43;3.93;;;;;;;;;;5041598;28;20184;-87
2022/10/19 15:50:43;;;;;;;6.67;4.60;;;;;;;;;;5041257;28;20179;-87
2022/10/19 15:53:47;;;;;;;9.80;4.10;;;;;;;;;;5052309;28;20219;-87
2022/10/19 15:56:51;;;;;;;5.63;4.33;;;;;;;;;;5040629;28;20200;-87
2022/10/19 15:59:58;;;;;;;7.60;4.43;;;;;;;;;;5052107;28;20176;-87
2022/10/19 16:03:02;;;;;;;9.70;4.73;;;;;;;;;;5084347;23;20231;-87
2022/10/19 16:06:07;;;;;;;8.03;4.43;;;;;;;;;;5076796;28;20171;-86
2022/10/19 16:09:20;;;;;;;7.03;5.20;;;;;;;;;;5051401;28;20175;-86
2022/10/19 16:12:25;;;;;;;8.00;5.63;;;;;;;;;;5043617;28;20208;-86
2022/10/19 16:15:29;;;;;;;9.27;6.37;;;;;;;;;;5055616;28;20180;-86
2022/10/19 16:18:34;;;;;;;13.23;6.97;;;;;;;;;;5055670;28;20172;-86
2022/10/19 16:21:38;;;;;;;12.00;6.80;;;;;;;;;;5044710;28;20571;-86
2022/10/19 16:24:42;;;;;;;17.43;6.73;;;;;;;;;;5034390;28;20650;-86
2022/10/19 16:27:46;;;;;;;18.40;8.47;;;;;;;;;;5044496;28;20200;-86
2022/10/19 16:30:52;;;;;;;17.77;8.37;;;;;;;;;;5034847;28;20195;-86
2022/10/19 16:33:55;;;;;;;11.67;6.80;;;;;;;;;;5013291;28;20547;-85
2022/10/19 16:37:00;;;;;;;7.70;6.07;;;;;;;;;;5035154;28;20173;-86
2022/10/19 16:40:05;;;;;;;10.33;6.00;;;;;;;;;;5035879;28;20196;-86
2022/10/19 16:43:09;;;;;;;8.50;5.23;;;;;;;;;;5013605;28;20212;-85
2022/10/19 16:46:13;;;;;;;7.63;5.27;;;;;;;;;;5013814;28;20508;-86
2022/10/19 16:49:17;;;;;;;6.33;5.13;;;;;;;;;;5035107;28;20173;-85
2022/10/19 16:52:22;;;;;;;5.53;4.90;;;;;;;;;;5012690;28;20217;-85
2022/10/19 16:55:27;;;;;;;8.20;4.77;;;;;;;;;;5012412;28;20220;-86
2022/10/19 16:58:31;;;;;;;6.57;4.97;;;;;;;;;;5035627;28;20177;-86
2022/10/19 17:01:35;;;;;;;6.73;4.93;;;;;;;;;;5024103;28;20232;-86
2022/10/19 17:04:39;;;;;;;8.77;5.20;;;;;;;;;;5023730;28;20185;-86
2022/10/19 17:07:43;;;;;;;6.37;4.67;;;;;;;;;;5024304;28;20627;-85
2022/10/19 17:10:48;;;;;;;7.37;5.17;;;;;;;;;;5013214;28;20180;-86
2022/10/19 17:13:55;;;;;;;6.53;5.03;;;;;;;;;;5001183;28;20224;-86
2022/10/19 17:16:59;;;;;;;6.90;5.27;;;;;;;;;;5026005;28;20200;-86
2022/10/19 17:20:03;;;;;;;6.07;4.90;;;;;;;;;;5023588;28;20200;-86
2022/10/19 17:23:07;;;;;;;6.30;5.20;;;;;;;;;;5023783;28;20560;-86
2022/10/19 17:26:12;;;;;;;10.97;5.87;;;;;;;;;;5012437;28;20181;-86
2022/10/19 17:29:18;;;;;;;7.10;4.97;;;;;;;;;;5023657;28;20173;-86
2022/10/19 17:32:22;;;;;;;7.73;5.03;;;;;;;;;;5011904;28;20212;-85
2022/10/19 17:35:26;;;;;;;6.43;4.87;;;;;;;;;;5011820;28;20216;-86
2022/10/19 17:38:30;;;;;;;39.87;7.47;;;;;;;;;;5011844;28;20196;-86
2022/10/19 17:41:34;;;;;;;8.60;5.73;;;;;;;;;;5022707;28;20220;-85
2022/10/19 17:44:38;;;;;;;11.80;5.73;;;;;;;;;;5023129;28;20177;-84
2022/10/19 17:47:42;;;;;;;7.47;5.10;;;;;;;;;;5023018;28;20181;-85
2022/10/19 17:50:55;;;;;;;6.93;4.67;;;;;;;;;;5023562;28;20197;-84
2022/10/19 17:54:05;;;;;;;5.90;4.83;;;;;;;;;;5023645;28;20217;-85
2022/10/19 17:57:09;;;;;;;6.97;5.13;;;;;;;;;;5023495;28;20177;-85
2022/10/19 18:00:13;;;;;;;9.23;5.57;;;;;;;;;;5001192;28;20197;-85
2022/10/19 18:03:18;;;;;;;8.43;5.27;;;;;;;;;;5034292;28;20228;-85
2022/10/19 18:06:25;;;;;;;10.23;5.40;;;;;;;;;;5022877;28;20185;-85
2022/10/19 18:09:29;;;;;;;9.83;5.67;;;;;;;;;;5003987;28;20181;-85
2022/10/19 18:12:33;;;;;;;9.13;6.10;;;;;;;;;;5033491;28;20224;-87
2022/10/19 18:15:38;;;;;;;14.00;7.10;;;;;;;;;;5037395;28;20208;-86
2022/10/19 18:18:44;;;;;;;9.90;6.80;;;;;;;;;;5025606;28;20172;-86
2022/10/19 18:21:49;;;;;;;8.60;5.37;;;;;;;;;;5024972;28;20217;-85
2022/10/19 18:24:53;;;;;;;7.60;5.63;;;;;;;;;;5037172;28;20168;-85
2022/10/19 18:27:57;;;;;;;10.40;5.30;;;;;;;;;;5002456;28;20522;-86
2022/10/19 18:31:11;;;;;;;10.30;6.50;;;;;;;;;;5014250;28;20181;-86
2022/10/19 18:34:15;;;;;;;10.50;5.50;;;;;;;;;;5028249;28;20549;-85
2022/10/19 18:37:20;;;;;;;8.87;5.30;;;;;;;;;;5016731;28;20181;-84
2022/10/19 18:40:24;;;;;;;9.27;5.70;;;;;;;;;;5028350;28;20177;-84
2022/10/19 18:43:28;;;;;;;6.47;5.77;;;;;;;;;;5028353;28;20185;-86